sensor_id;sensor_type;location;lat;lon;timestamp;pressure;altitude;pressure_sealevel;temperature;humidity
43553;BME280;29153;42.696;23.218;2023-05-11T00:02:03;94619.98;;;9.77;87.36
43553;BME280;29153;42.696;23.218;2023-05-11T00:04:31;94630.55;;;9.85;86.54
43553;BME280;29153;42.696;23.218;2023-05-11T00:06:58;94627.12;;;9.89;85.54
43553;BME280;29153;42.696;23.218;2023-05-11T00:09:26;94623.42;;;9.60;85.74
43553;BME280;29153;42.696;23.218;2023-05-11T00:11:54;94627.92;;;9.72;85.45
43553;BME280;29153;42.696;23.218;2023-05-11T00:14:21;94635.59;;;9.56;86.39
43553;BME280;29153;42.696;23.218;2023-05-11T00:16:49;94631.89;;;9.52;85.88
43553;BME280;29153;42.696;23.218;2023-05-11T00:19:17;94635.05;;;9.59;85.45
43553;BME280;29153;42.696;23.218;2023-05-11T00:21:44;94630.84;;;9.60;85.79
43553;BME280;29153;42.696;23.218;2023-05-11T00:24:12;94640.34;;;9.39;85.90
43553;BME280;29153;42.696;23.218;2023-05-11T00:26:39;94637.69;;;9.46;86.31
43553;BME280;29153;42.696;23.218;2023-05-11T00:29:07;94640.36;;;9.49;86.82
43553;BME280;29153;42.696;23.218;2023-05-11T00:31:34;94634.80;;;9.48;85.84
43553;BME280;29153;42.696;23.218;2023-05-11T00:34:02;94638.77;;;9.53;86.59
43553;BME280;29153;42.696;23.218;2023-05-11T00:36:30;94627.91;;;9.42;86.18
43553;BME280;29153;42.696;23.218;2023-05-11T00:38:58;94640.88;;;9.56;86.19
43553;BME280;29153;42.696;23.218;2023-05-11T00:41:25;94642.18;;;9.38;85.64
43553;BME280;29153;42.696;23.218;2023-05-11T00:43:53;94647.47;;;9.46;86.11
43553;BME280;29153;42.696;23.218;2023-05-11T00:46:20;94646.15;;;9.46;86.49
43553;BME280;29153;42.696;23.218;2023-05-11T00:48:48;94650.66;;;9.48;85.92
43553;BME280;29153;42.696;23.218;2023-05-11T00:51:15;94646.42;;;9.47;86.24
43553;BME280;29153;42.696;23.218;2023-05-11T00:53:44;94639.82;;;9.59;85.79
43553;BME280;29153;42.696;23.218;2023-05-11T00:56:12;94642.48;;;9.57;86.24
43553;BME280;29153;42.696;23.218;2023-05-11T00:58:39;94648.28;;;9.51;86.16
43553;BME280;29153;42.696;23.218;2023-05-11T01:01:07;94644.28;;;9.34;86.59
43553;BME280;29153;42.696;23.218;2023-05-11T01:03:35;94641.92;;;9.32;86.45
43553;BME280;29153;42.696;23.218;2023-05-11T01:06:24;94640.34;;;9.46;86.36
43553;BME280;29153;42.696;23.218;2023-05-11T01:09:00;94641.39;;;9.28;86.76
43553;BME280;29153;42.696;23.218;2023-05-11T01:11:31;94636.64;;;9.40;87.51
43553;BME280;29153;42.696;23.218;2023-05-11T01:14:02;94628.96;;;9.46;86.80
43553;BME280;29153;42.696;23.218;2023-05-11T01:16:31;94635.58;;;9.43;86.94
43553;BME280;29153;42.696;23.218;2023-05-11T01:19:22;94627.33;;;9.12;87.76
43553;BME280;29153;42.696;23.218;2023-05-11T01:21:46;94632.66;;;9.30;87.82
43553;BME280;29153;42.696;23.218;2023-05-11T01:24:36;94631.31;;;9.07;87.59
43553;BME280;29153;42.696;23.218;2023-05-11T01:27:33;94641.06;;;9.01;88.40
43553;BME280;29153;42.696;23.218;2023-05-11T01:32:47;94642.71;;;9.28;88.27
43553;BME280;29153;42.696;23.218;2023-05-11T01:35:19;94637.13;;;9.24;88.26
43553;BME280;29153;42.696;23.218;2023-05-11T01:37:50;94648.23;;;9.21;87.89
43553;BME280;29153;42.696;23.218;2023-05-11T01:40:21;94647.17;;;9.14;88.08
43553;BME280;29153;42.696;23.218;2023-05-11T01:42:57;94644.50;;;9.04;88.05
43553;BME280;29153;42.696;23.218;2023-05-11T01:45:20;94643.23;;;9.20;87.98
43553;BME280;29153;42.696;23.218;2023-05-11T01:47:50;94646.92;;;9.29;87.43
43553;BME280;29153;42.696;23.218;2023-05-11T01:50:20;94647.35;;;8.90;88.02
43553;BME280;29153;42.696;23.218;2023-05-11T01:52:50;94652.16;;;9.01;88.39
43553;BME280;29153;42.696;23.218;2023-05-11T01:55:20;94649.80;;;9.12;88.67
43553;BME280;29153;42.696;23.218;2023-05-11T01:57:50;94652.95;;;9.01;87.30
43553;BME280;29153;42.696;23.218;2023-05-11T02:00:20;94647.64;;;8.96;87.41
43553;BME280;29153;42.696;23.218;2023-05-11T02:02:49;94655.09;;;9.07;87.37
43553;BME280;29153;42.696;23.218;2023-05-11T02:05:18;94649.28;;;9.18;87.70
43553;BME280;29153;42.696;23.218;2023-05-11T02:07:48;94646.89;;;9.16;87.79
43553;BME280;29153;42.696;23.218;2023-05-11T02:10:19;94647.45;;;9.26;87.30
43553;BME280;29153;42.696;23.218;2023-05-11T02:12:49;94647.71;;;9.22;87.09
43553;BME280;29153;42.696;23.218;2023-05-11T02:15:19;94647.39;;;9.03;86.61
43553;BME280;29153;42.696;23.218;2023-05-11T02:17:48;94645.86;;;9.14;86.47
43553;BME280;29153;42.696;23.218;2023-05-11T02:20:18;94643.98;;;9.12;86.06
43553;BME280;29153;42.696;23.218;2023-05-11T02:22:47;94641.11;;;9.19;86.50
43553;BME280;29153;42.696;23.218;2023-05-11T02:25:16;94648.50;;;9.22;86.08
43553;BME280;29153;42.696;23.218;2023-05-11T02:27:44;94611.42;;;8.87;85.24
43553;BME280;29153;42.696;23.218;2023-05-11T02:30:12;94645.86;;;9.14;85.11
43553;BME280;29153;42.696;23.218;2023-05-11T02:32:43;94648.77;;;9.16;84.93
43553;BME280;29153;42.696;23.218;2023-05-11T02:35:20;94649.01;;;9.06;84.84
43553;BME280;29153;42.696;23.218;2023-05-11T02:37:47;94639.52;;;9.16;85.74
43553;BME280;29153;42.696;23.218;2023-05-11T02:40:17;94646.11;;;9.21;85.46
43553;BME280;29153;42.696;23.218;2023-05-11T02:42:48;94642.44;;;9.27;84.37
43553;BME280;29153;42.696;23.218;2023-05-11T02:45:17;94641.63;;;9.21;84.16
43553;BME280;29153;42.696;23.218;2023-05-11T02:47:50;94654.33;;;9.29;84.38
43553;BME280;29153;42.696;23.218;2023-05-11T02:50:17;94647.95;;;9.20;83.14
43553;BME280;29153;42.696;23.218;2023-05-11T02:52:47;94648.23;;;9.21;84.00
43553;BME280;29153;42.696;23.218;2023-05-11T02:55:16;94649.03;;;9.22;83.60
43553;BME280;29153;42.696;23.218;2023-05-11T02:57:46;94645.58;;;9.13;83.12
43553;BME280;29153;42.696;23.218;2023-05-11T03:00:15;94641.91;;;9.20;83.35
43553;BME280;29153;42.696;23.218;2023-05-11T03:02:42;94646.63;;;9.10;82.38
43553;BME280;29153;42.696;23.218;2023-05-11T03:05:10;94649.00;;;9.11;83.70
43553;BME280;29153;42.696;23.218;2023-05-11T03:07:38;94646.52;;;8.77;83.43
43553;BME280;29153;42.696;23.218;2023-05-11T03:10:06;94637.58;;;8.91;84.18
43553;BME280;29153;42.696;23.218;2023-05-11T03:12:34;94648.96;;;8.99;83.70
43553;BME280;29153;42.696;23.218;2023-05-11T03:15:03;94640.50;;;8.89;83.61
43553;BME280;29153;42.696;23.218;2023-05-11T03:17:30;94642.05;;;8.83;83.34
43553;BME280;29153;42.696;23.218;2023-05-11T03:19:58;94642.08;;;8.85;83.90
43553;BME280;29153;42.696;23.218;2023-05-11T03:22:29;94650.55;;;8.90;83.75
43553;BME280;29153;42.696;23.218;2023-05-11T03:24:57;94651.02;;;8.79;84.20
43553;BME280;29153;42.696;23.218;2023-05-11T03:27:26;94652.37;;;8.84;85.44
43553;BME280;29153;42.696;23.218;2023-05-11T03:29:56;94648.95;;;8.91;84.65
43553;BME280;29153;42.696;23.218;2023-05-11T03:32:24;94650.29;;;8.96;84.09
43553;BME280;29153;42.696;23.218;2023-05-11T03:34:52;94649.72;;;8.87;84.13
43553;BME280;29153;42.696;23.218;2023-05-11T03:37:20;94653.66;;;8.79;84.19
43553;BME280;29153;42.696;23.218;2023-05-11T03:39:51;94658.13;;;8.71;84.58
43553;BME280;29153;42.696;23.218;2023-05-11T03:42:20;94661.84;;;8.73;84.07
43553;BME280;29153;42.696;23.218;2023-05-11T03:44:49;94660.71;;;8.61;84.34
43553;BME280;29153;42.696;23.218;2023-05-11T03:47:19;94657.35;;;8.76;85.16
43553;BME280;29153;42.696;23.218;2023-05-11T03:49:47;94656.53;;;8.70;84.74
43553;BME280;29153;42.696;23.218;2023-05-11T03:52:17;94658.42;;;8.80;84.82
43553;BME280;29153;42.696;23.218;2023-05-11T03:54:45;94657.65;;;8.87;85.05
43553;BME280;29153;42.696;23.218;2023-05-11T03:57:14;94669.55;;;8.94;84.26
43553;BME280;29153;42.696;23.218;2023-05-11T03:59:41;94663.19;;;8.80;84.94
43553;BME280;29153;42.696;23.218;2023-05-11T04:02:09;94664.25;;;8.87;84.81
43553;BME280;29153;42.696;23.218;2023-05-11T04:04:37;94666.10;;;8.81;84.61
43553;BME280;29153;42.696;23.218;2023-05-11T04:07:04;94661.84;;;8.75;85.71
43553;BME280;29153;42.696;23.218;2023-05-11T04:09:32;94669.77;;;8.75;85.12
43553;BME280;29153;42.696;23.218;2023-05-11T04:11:59;94678.18;;;8.67;84.89
43553;BME280;29153;42.696;23.218;2023-05-11T04:14:27;94673.23;;;8.81;85.43
43553;BME280;29153;42.696;23.218;2023-05-11T04:16:54;94670.09;;;8.89;85.58
43553;BME280;29153;42.696;23.218;2023-05-11T04:19:22;94675.56;;;8.75;85.32
43553;BME280;29153;42.696;23.218;2023-05-11T04:21:49;94674.80;;;8.77;85.21
43553;BME280;29153;42.696;23.218;2023-05-11T04:24:17;94676.06;;;8.64;85.87
43553;BME280;29153;42.696;23.218;2023-05-11T04:26:44;94673.94;;;8.66;86.64
43553;BME280;29153;42.696;23.218;2023-05-11T04:29:12;94676.91;;;8.82;85.96
43553;BME280;29153;42.696;23.218;2023-05-11T04:31:39;94683.27;;;8.81;86.02
43553;BME280;29153;42.696;23.218;2023-05-11T04:34:07;94674.30;;;8.85;86.05
43553;BME280;29153;42.696;23.218;2023-05-11T04:36:35;94682.52;;;8.93;85.10
43553;BME280;29153;42.696;23.218;2023-05-11T04:39:02;94684.86;;;8.87;85.33
43553;BME280;29153;42.696;23.218;2023-05-11T04:41:30;94691.98;;;8.84;85.68
43553;BME280;29153;42.696;23.218;2023-05-11T04:43:59;94692.91;;;8.58;86.97
43553;BME280;29153;42.696;23.218;2023-05-11T04:46:26;94681.28;;;8.51;87.26
43553;BME280;29153;42.696;23.218;2023-05-11T04:48:54;94691.11;;;8.66;87.34
43553;BME280;29153;42.696;23.218;2023-05-11T04:51:21;94689.27;;;8.66;86.84
43553;BME280;29153;42.696;23.218;2023-05-11T04:53:49;94689.23;;;8.59;87.62
43553;BME280;29153;42.696;23.218;2023-05-11T04:56:16;94690.83;;;8.65;87.47
43553;BME280;29153;42.696;23.218;2023-05-11T04:58:45;94687.67;;;8.63;87.88
43553;BME280;29153;42.696;23.218;2023-05-11T05:01:13;94692.19;;;8.67;88.58
43553;BME280;29153;42.696;23.218;2023-05-11T05:03:40;94696.70;;;8.77;88.48
43553;BME280;29153;42.696;23.218;2023-05-11T05:06:08;94697.47;;;8.70;88.05
43553;BME280;29153;42.696;23.218;2023-05-11T05:08:36;94701.48;;;8.83;87.63
43553;BME280;29153;42.696;23.218;2023-05-11T05:11:03;94704.67;;;8.87;87.98
43553;BME280;29153;42.696;23.218;2023-05-11T05:13:31;94708.11;;;8.90;86.82
43553;BME280;29153;42.696;23.218;2023-05-11T05:15:59;94709.23;;;9.02;87.18
43553;BME280;29153;42.696;23.218;2023-05-11T05:18:26;94707.56;;;8.83;86.37
43553;BME280;29153;42.696;23.218;2023-05-11T05:20:54;94711.83;;;8.94;87.86
43553;BME280;29153;42.696;23.218;2023-05-11T05:23:21;94712.48;;;9.27;87.33
43553;BME280;29153;42.696;23.218;2023-05-11T05:25:49;94712.42;;;9.06;86.69
43553;BME280;29153;42.696;23.218;2023-05-11T05:28:16;94708.19;;;9.08;87.93
43553;BME280;29153;42.696;23.218;2023-05-11T05:30:44;94707.18;;;9.19;87.61
43553;BME280;29153;42.696;23.218;2023-05-11T05:33:11;94713.53;;;9.23;86.83
43553;BME280;29153;42.696;23.218;2023-05-11T05:35:39;94717.50;;;9.26;86.47
43553;BME280;29153;42.696;23.218;2023-05-11T05:38:08;94721.20;;;9.20;87.13
43553;BME280;29153;42.696;23.218;2023-05-11T05:40:36;94717.27;;;9.32;87.17
43553;BME280;29153;42.696;23.218;2023-05-11T05:43:05;94714.66;;;9.45;87.01
43553;BME280;29153;42.696;23.218;2023-05-11T05:45:33;94719.69;;;9.56;87.10
43553;BME280;29153;42.696;23.218;2023-05-11T05:48:00;94721.27;;;9.55;86.39
43553;BME280;29153;42.696;23.218;2023-05-11T05:50:28;94722.61;;;9.68;85.62
43553;BME280;29153;42.696;23.218;2023-05-11T05:52:55;94719.45;;;9.73;85.37
43553;BME280;29153;42.696;23.218;2023-05-11T05:55:23;94727.37;;;9.68;85.53
43553;BME280;29153;42.696;23.218;2023-05-11T05:57:51;94720.78;;;9.78;85.08
43553;BME280;29153;42.696;23.218;2023-05-11T06:00:19;94728.98;;;9.84;85.47
43553;BME280;29153;42.696;23.218;2023-05-11T06:02:46;94727.42;;;10.01;84.62
43553;BME280;29153;42.696;23.218;2023-05-11T06:05:14;94733.75;;;9.97;83.58
43553;BME280;29153;42.696;23.218;2023-05-11T06:07:41;94739.30;;;9.93;83.30
43553;BME280;29153;42.696;23.218;2023-05-11T06:10:09;94742.76;;;9.99;82.76
43553;BME280;29153;42.696;23.218;2023-05-11T06:12:36;94741.19;;;10.00;83.56
43553;BME280;29153;42.696;23.218;2023-05-11T06:15:04;94737.73;;;10.00;83.58
43553;BME280;29153;42.696;23.218;2023-05-11T06:17:32;94738.27;;;10.04;82.94
43553;BME280;29153;42.696;23.218;2023-05-11T06:20:00;94746.48;;;10.00;83.78
43553;BME280;29153;42.696;23.218;2023-05-11T06:22:27;94748.59;;;9.96;83.04
43553;BME280;29153;42.696;23.218;2023-05-11T06:24:55;94750.16;;;10.02;83.92
43553;BME280;29153;42.696;23.218;2023-05-11T06:27:23;94744.87;;;10.02;83.89
43553;BME280;29153;42.696;23.218;2023-05-11T06:29:50;94747.52;;;9.87;82.34
43553;BME280;29153;42.696;23.218;2023-05-11T06:32:18;94754.97;;;10.15;83.11
43553;BME280;29153;42.696;23.218;2023-05-11T06:34:46;94759.20;;;10.19;82.77
43553;BME280;29153;42.696;23.218;2023-05-11T06:37:13;94758.95;;;10.18;81.08
43553;BME280;29153;42.696;23.218;2023-05-11T06:39:43;94760.24;;;10.13;81.54
43553;BME280;29153;42.696;23.218;2023-05-11T06:42:10;94763.45;;;10.35;81.86
43553;BME280;29153;42.696;23.218;2023-05-11T06:44:38;94762.66;;;10.17;80.89
43553;BME280;29153;42.696;23.218;2023-05-11T06:47:06;94760.79;;;10.32;81.69
43553;BME280;29153;42.696;23.218;2023-05-11T06:49:34;94757.35;;;10.52;82.11
43553;BME280;29153;42.696;23.218;2023-05-11T06:52:01;94761.84;;;10.41;81.14
43553;BME280;29153;42.696;23.218;2023-05-11T06:54:29;94754.41;;;10.11;81.46
43553;BME280;29153;42.696;23.218;2023-05-11T06:56:56;94756.82;;;10.20;81.07
43553;BME280;29153;42.696;23.218;2023-05-11T06:59:24;94755.23;;;10.52;81.47
43553;BME280;29153;42.696;23.218;2023-05-11T07:01:52;94769.00;;;10.56;80.22
43553;BME280;29153;42.696;23.218;2023-05-11T07:04:19;94760.77;;;10.58;81.88
43553;BME280;29153;42.696;23.218;2023-05-11T07:06:47;94764.44;;;10.79;79.89
43553;BME280;29153;42.696;23.218;2023-05-11T07:09:15;94759.38;;;10.93;79.34
43553;BME280;29153;42.696;23.218;2023-05-11T07:11:43;94777.07;;;11.20;79.35
43553;BME280;29153;42.696;23.218;2023-05-11T07:14:10;94775.73;;;11.18;78.17
43553;BME280;29153;42.696;23.218;2023-05-11T07:16:38;94776.23;;;11.27;77.49
43553;BME280;29153;42.696;23.218;2023-05-11T07:19:06;94778.10;;;11.29;78.60
43553;BME280;29153;42.696;23.218;2023-05-11T07:21:35;94776.12;;;11.53;79.23
43553;BME280;29153;42.696;23.218;2023-05-11T07:24:02;94772.95;;;11.53;77.83
43553;BME280;29153;42.696;23.218;2023-05-11T07:26:30;94779.56;;;11.58;77.59
43553;BME280;29153;42.696;23.218;2023-05-11T07:28:57;94776.55;;;11.80;77.74
43553;BME280;29153;42.696;23.218;2023-05-11T07:31:25;94781.11;;;11.67;75.09
43553;BME280;29153;42.696;23.218;2023-05-11T07:33:54;94785.56;;;11.84;76.97
43553;BME280;29153;42.696;23.218;2023-05-11T07:36:22;94790.73;;;12.04;73.77
43553;BME280;29153;42.696;23.218;2023-05-11T07:38:49;94795.98;;;12.12;72.92
43553;BME280;29153;42.696;23.218;2023-05-11T07:41:17;94794.84;;;11.84;73.23
43553;BME280;29153;42.696;23.218;2023-05-11T07:43:46;94793.28;;;11.78;73.16
43553;BME280;29153;42.696;23.218;2023-05-11T07:46:13;94798.99;;;12.00;73.29
43553;BME280;29153;42.696;23.218;2023-05-11T07:48:41;94795.48;;;12.10;72.38
43553;BME280;29153;42.696;23.218;2023-05-11T07:51:09;94789.52;;;11.86;72.91
43553;BME280;29153;42.696;23.218;2023-05-11T07:53:36;94786.25;;;12.00;75.41
43553;BME280;29153;42.696;23.218;2023-05-11T07:56:04;94787.97;;;12.22;74.40
43553;BME280;29153;42.696;23.218;2023-05-11T07:58:32;94793.28;;;12.22;72.64
43553;BME280;29153;42.696;23.218;2023-05-11T08:00:59;94796.81;;;12.10;73.19
43553;BME280;29153;42.696;23.218;2023-05-11T08:03:27;94793.73;;;11.93;72.94
43553;BME280;29153;42.696;23.218;2023-05-11T08:05:54;94788.23;;;12.23;74.61
43553;BME280;29153;42.696;23.218;2023-05-11T08:08:23;94799.91;;;12.19;72.39
43553;BME280;29153;42.696;23.218;2023-05-11T08:10:51;94799.91;;;12.22;69.75
43553;BME280;29153;42.696;23.218;2023-05-11T08:13:19;94787.07;;;12.34;71.45
43553;BME280;29153;42.696;23.218;2023-05-11T08:15:46;94793.65;;;12.44;73.33
43553;BME280;29153;42.696;23.218;2023-05-11T08:18:14;94795.94;;;12.56;70.76
43553;BME280;29153;42.696;23.218;2023-05-11T08:20:41;94796.00;;;12.48;69.94
43553;BME280;29153;42.696;23.218;2023-05-11T08:23:09;94798.59;;;12.85;70.14
43553;BME280;29153;42.696;23.218;2023-05-11T08:25:38;94795.30;;;12.66;69.49
43553;BME280;29153;42.696;23.218;2023-05-11T08:28:05;94794.38;;;12.52;68.90
43553;BME280;29153;42.696;23.218;2023-05-11T08:30:33;94737.55;;;11.80;70.08
43553;BME280;29153;42.696;23.218;2023-05-11T08:33:01;94796.96;;;12.89;69.99
43553;BME280;29153;42.696;23.218;2023-05-11T08:35:28;94803.48;;;12.41;67.21
43553;BME280;29153;42.696;23.218;2023-05-11T08:37:56;94796.43;;;12.60;69.97
43553;BME280;29153;42.696;23.218;2023-05-11T08:40:25;94803.23;;;12.71;69.94
43553;BME280;29153;42.696;23.218;2023-05-11T08:42:55;94810.63;;;12.48;67.55
43553;BME280;29153;42.696;23.218;2023-05-11T08:45:25;94802.47;;;12.68;69.79
43553;BME280;29153;42.696;23.218;2023-05-11T08:47:54;94803.84;;;12.63;70.60
43553;BME280;29153;42.696;23.218;2023-05-11T08:50:22;94795.01;;;12.37;69.38
43553;BME280;29153;42.696;23.218;2023-05-11T08:52:49;94794.04;;;12.61;69.71
43553;BME280;29153;42.696;23.218;2023-05-11T08:55:17;94795.09;;;12.89;68.26
43553;BME280;29153;42.696;23.218;2023-05-11T08:57:45;94795.67;;;12.57;68.35
43553;BME280;29153;42.696;23.218;2023-05-11T09:00:13;94796.11;;;12.96;67.52
43553;BME280;29153;42.696;23.218;2023-05-11T09:02:41;94790.30;;;13.20;66.62
43553;BME280;29153;42.696;23.218;2023-05-11T09:05:09;94789.80;;;13.39;67.06
43553;BME280;29153;42.696;23.218;2023-05-11T09:07:38;94786.66;;;13.58;65.31
43553;BME280;29153;42.696;23.218;2023-05-11T09:10:07;94779.04;;;13.71;67.42
43553;BME280;29153;42.696;23.218;2023-05-11T09:12:34;94775.61;;;13.89;66.35
43553;BME280;29153;42.696;23.218;2023-05-11T09:15:02;94773.77;;;14.05;65.22
43553;BME280;29153;42.696;23.218;2023-05-11T09:17:30;94768.18;;;13.67;65.09
43553;BME280;29153;42.696;23.218;2023-05-11T09:20:01;94766.26;;;13.51;66.67
43553;BME280;29153;42.696;23.218;2023-05-11T09:22:46;94767.82;;;13.52;66.87
43553;BME280;29153;42.696;23.218;2023-05-11T09:25:14;94779.06;;;13.89;65.19
43553;BME280;29153;42.696;23.218;2023-05-11T09:27:45;94778.44;;;13.95;64.84
43553;BME280;29153;42.696;23.218;2023-05-11T09:30:15;94781.84;;;14.19;64.16
43553;BME280;29153;42.696;23.218;2023-05-11T09:32:51;94775.44;;;14.01;65.58
43553;BME280;29153;42.696;23.218;2023-05-11T09:35:20;94783.23;;;14.33;63.36
43553;BME280;29153;42.696;23.218;2023-05-11T09:38:08;94780.55;;;14.51;64.27
43553;BME280;29153;42.696;23.218;2023-05-11T09:40:41;94777.61;;;14.37;65.13
43553;BME280;29153;42.696;23.218;2023-05-11T09:43:20;94771.86;;;14.62;64.27
43553;BME280;29153;42.696;23.218;2023-05-11T09:45:49;94771.88;;;14.92;64.06
43553;BME280;29153;42.696;23.218;2023-05-11T09:48:28;94774.00;;;14.76;64.04
43553;BME280;29153;42.696;23.218;2023-05-11T09:51:06;94764.05;;;14.82;64.65
43553;BME280;29153;42.696;23.218;2023-05-11T09:53:41;94763.73;;;14.70;62.82
43553;BME280;29153;42.696;23.218;2023-05-11T09:56:12;94754.11;;;15.01;64.27
43553;BME280;29153;42.696;23.218;2023-05-11T09:58:48;94754.11;;;15.01;64.27
43553;BME280;29153;42.696;23.218;2023-05-11T10:01:18;94759.96;;;14.87;61.67
43553;BME280;29153;42.696;23.218;2023-05-11T10:03:49;94742.75;;;15.09;64.45
43553;BME280;29153;42.696;23.218;2023-05-11T10:06:17;94740.86;;;14.96;64.82
43553;BME280;29153;42.696;23.218;2023-05-11T10:08:45;94739.48;;;14.34;63.41
43553;BME280;29153;42.696;23.218;2023-05-11T10:11:13;94739.41;;;14.23;65.60
43553;BME280;29153;42.696;23.218;2023-05-11T10:13:43;94737.46;;;14.77;65.22
43553;BME280;29153;42.696;23.218;2023-05-11T10:16:13;94738.06;;;14.74;65.87
43553;BME280;29153;42.696;23.218;2023-05-11T10:18:41;94731.77;;;14.83;65.78
43553;BME280;29153;42.696;23.218;2023-05-11T10:21:10;94725.16;;;15.08;64.27
43553;BME280;29153;42.696;23.218;2023-05-11T10:23:38;94727.61;;;14.91;62.27
43553;BME280;29153;42.696;23.218;2023-05-11T10:26:06;94728.99;;;15.02;63.51
43553;BME280;29153;42.696;23.218;2023-05-11T10:28:35;94733.00;;;15.02;64.66
43553;BME280;29153;42.696;23.218;2023-05-11T10:31:03;94733.06;;;15.13;63.77
43553;BME280;29153;42.696;23.218;2023-05-11T10:33:31;94736.77;;;15.28;63.55
43553;BME280;29153;42.696;23.218;2023-05-11T10:36:01;94722.94;;;15.13;63.48
43553;BME280;29153;42.696;23.218;2023-05-11T10:38:29;94727.48;;;15.12;62.01
43553;BME280;29153;42.696;23.218;2023-05-11T10:40:59;94711.66;;;15.16;65.06
43553;BME280;29153;42.696;23.218;2023-05-11T10:43:36;94717.48;;;15.59;65.11
43553;BME280;29153;42.696;23.218;2023-05-11T10:49:07;94730.29;;;15.84;61.13
43553;BME280;29153;42.696;23.218;2023-05-11T10:54:48;94723.72;;;15.79;61.84
43553;BME280;29153;42.696;23.218;2023-05-11T11:02:57;94721.70;;;15.21;63.21
43553;BME280;29153;42.696;23.218;2023-05-11T11:05:36;94727.37;;;15.03;63.94
43553;BME280;29153;42.696;23.218;2023-05-11T11:08:04;94724.96;;;15.04;62.84
43553;BME280;29153;42.696;23.218;2023-05-11T11:10:35;94722.17;;;15.23;64.37
43553;BME280;29153;42.696;23.218;2023-05-11T11:13:14;94725.41;;;15.09;63.64
43553;BME280;29153;42.696;23.218;2023-05-11T11:18:31;94722.11;;;14.85;62.62
43553;BME280;29153;42.696;23.218;2023-05-11T11:20:58;94711.55;;;14.93;62.83
43553;BME280;29153;42.696;23.218;2023-05-11T11:23:46;94716.55;;;14.84;62.55
43553;BME280;29153;42.696;23.218;2023-05-11T11:26:44;94709.89;;;14.84;64.87
43553;BME280;29153;42.696;23.218;2023-05-11T11:31:26;94707.84;;;14.78;65.58
43553;BME280;29153;42.696;23.218;2023-05-11T11:33:55;94708.08;;;14.66;62.86
43553;BME280;29153;42.696;23.218;2023-05-11T11:44:51;94704.41;;;15.05;62.67
43553;BME280;29153;42.696;23.218;2023-05-11T11:47:21;94702.67;;;15.25;62.34
43553;BME280;29153;42.696;23.218;2023-05-11T11:49:53;94703.50;;;14.82;64.74
43553;BME280;29153;42.696;23.218;2023-05-11T11:55:01;94690.36;;;14.86;64.51
43553;BME280;29153;42.696;23.218;2023-05-11T12:00:05;94694.23;;;14.80;62.72
43553;BME280;29153;42.696;23.218;2023-05-11T12:02:38;94695.20;;;15.11;64.46
43553;BME280;29153;42.696;23.218;2023-05-11T12:05:12;94701.92;;;14.95;61.48
43553;BME280;29153;42.696;23.218;2023-05-11T12:07:44;94701.66;;;14.67;62.49
43553;BME280;29153;42.696;23.218;2023-05-11T12:10:13;94688.37;;;14.32;63.49
43553;BME280;29153;42.696;23.218;2023-05-11T12:12:46;94688.37;;;14.32;63.49
43553;BME280;29153;42.696;23.218;2023-05-11T12:15:28;94693.91;;;14.51;63.81
43553;BME280;29153;42.696;23.218;2023-05-11T12:17:57;94691.08;;;14.62;64.42
43553;BME280;29153;42.696;23.218;2023-05-11T12:20:27;94690.26;;;14.47;61.59
43553;BME280;29153;42.696;23.218;2023-05-11T12:22:54;94686.00;;;14.63;64.18
43553;BME280;29153;42.696;23.218;2023-05-11T12:25:22;94682.91;;;14.72;62.96
43553;BME280;29153;42.696;23.218;2023-05-11T12:27:56;94684.77;;;14.57;63.53
43553;BME280;29153;42.696;23.218;2023-05-11T12:30:32;94678.80;;;14.63;62.41
43553;BME280;29153;42.696;23.218;2023-05-11T12:32:56;94680.78;;;14.71;64.63
43553;BME280;29153;42.696;23.218;2023-05-11T12:35:30;94685.05;;;14.56;62.73
43553;BME280;29153;42.696;23.218;2023-05-11T12:38:00;94677.98;;;14.49;63.84
43553;BME280;29153;42.696;23.218;2023-05-11T12:40:28;94671.28;;;14.35;63.49
43553;BME280;29153;42.696;23.218;2023-05-11T12:42:56;94670.61;;;14.43;64.15
43553;BME280;29153;42.696;23.218;2023-05-11T12:45:25;94620.89;;;14.04;64.37
43553;BME280;29153;42.696;23.218;2023-05-11T12:47:54;94667.05;;;14.32;63.42
43553;BME280;29153;42.696;23.218;2023-05-11T12:50:23;94662.75;;;14.36;65.69
43553;BME280;29153;42.696;23.218;2023-05-11T12:52:51;94660.68;;;14.63;64.88
43553;BME280;29153;42.696;23.218;2023-05-11T12:55:28;94657.36;;;14.54;64.77
43553;BME280;29153;42.696;23.218;2023-05-11T12:58:16;94659.80;;;14.37;63.19
43553;BME280;29153;42.696;23.218;2023-05-11T13:00:55;94651.66;;;14.29;65.75
43553;BME280;29153;42.696;23.218;2023-05-11T13:03:24;94645.88;;;14.24;63.07
43553;BME280;29153;42.696;23.218;2023-05-11T13:06:04;94644.30;;;14.07;64.06
43553;BME280;29153;42.696;23.218;2023-05-11T13:08:32;94641.64;;;14.07;67.11
43553;BME280;29153;42.696;23.218;2023-05-11T13:11:18;94634.00;;;13.84;67.57
43553;BME280;29153;42.696;23.218;2023-05-11T13:13:48;94631.47;;;13.93;67.02
43553;BME280;29153;42.696;23.218;2023-05-11T13:16:30;94627.36;;;13.65;67.17
43553;BME280;29153;42.696;23.218;2023-05-11T13:18:58;94628.55;;;13.76;67.46
43553;BME280;29153;42.696;23.218;2023-05-11T13:21:27;94629.00;;;13.45;66.46
43553;BME280;29153;42.696;23.218;2023-05-11T13:23:55;94627.53;;;13.55;67.05
43553;BME280;29153;42.696;23.218;2023-05-11T13:26:24;94626.14;;;13.77;68.05
43553;BME280;29153;42.696;23.218;2023-05-11T13:28:52;94618.83;;;13.85;67.37
43553;BME280;29153;42.696;23.218;2023-05-11T13:31:20;94619.09;;;13.67;67.87
43553;BME280;29153;42.696;23.218;2023-05-11T13:33:49;94617.49;;;13.85;69.32
43553;BME280;29153;42.696;23.218;2023-05-11T13:36:17;94526.95;;;13.20;68.24
43553;BME280;29153;42.696;23.218;2023-05-11T13:38:44;94621.81;;;13.64;66.45
43553;BME280;29153;42.696;23.218;2023-05-11T13:41:12;94618.83;;;13.85;67.99